sensor_id;sensor_type;location;lat;lon;timestamp;P1;durP1;ratioP1;P2;durP2;ratioP2
27925;SDS011;15267;47.838;12.128;2023-07-22T00:00:29;2.53;;;2.13;;
27925;SDS011;15267;47.838;12.128;2023-07-22T00:02:56;4.15;;;2.35;;
27925;SDS011;15267;47.838;12.128;2023-07-22T00:05:22;4.88;;;2.40;;
27925;SDS011;15267;47.838;12.128;2023-07-22T00:07:51;2.40;;;1.92;;
27925;SDS011;15267;47.838;12.128;2023-07-22T00:10:17;3.63;;;2.22;;
27925;SDS011;15267;47.838;12.128;2023-07-22T00:12:44;3.00;;;2.10;;
27925;SDS011;15267;47.838;12.128;2023-07-22T00:15:10;3.05;;;2.30;;
27925;SDS011;15267;47.838;12.128;2023-07-22T00:17:39;5.05;;;2.22;;
27925;SDS011;15267;47.838;12.128;2023-07-22T00:20:06;4.25;;;2.30;;
27925;SDS011;15267;47.838;12.128;2023-07-22T00:22:35;3.67;;;2.30;;
27925;SDS011;15267;47.838;12.128;2023-07-22T00:25:01;3.78;;;2.30;;
27925;SDS011;15267;47.838;12.128;2023-07-22T00:27:27;3.75;;;2.35;;
27925;SDS011;15267;47.838;12.128;2023-07-22T00:29:53;3.78;;;2.20;;
27925;SDS011;15267;47.838;12.128;2023-07-22T00:32:19;3.05;;;2.00;;
27925;SDS011;15267;47.838;12.128;2023-07-22T00:34:45;3.10;;;2.13;;
27925;SDS011;15267;47.838;12.128;2023-07-22T00:37:11;3.38;;;2.40;;
27925;SDS011;15267;47.838;12.128;2023-07-22T00:39:37;3.75;;;2.38;;
27925;SDS011;15267;47.838;12.128;2023-07-22T00:42:04;2.65;;;2.35;;
27925;SDS011;15267;47.838;12.128;2023-07-22T00:44:33;3.50;;;2.20;;
27925;SDS011;15267;47.838;12.128;2023-07-22T00:46:59;3.17;;;2.00;;
27925;SDS011;15267;47.838;12.128;2023-07-22T00:49:25;4.47;;;2.33;;
27925;SDS011;15267;47.838;12.128;2023-07-22T00:51:52;3.40;;;2.50;;
27925;SDS011;15267;47.838;12.128;2023-07-22T00:54:17;3.03;;;2.25;;
27925;SDS011;15267;47.838;12.128;2023-07-22T00:56:44;4.28;;;2.72;;
27925;SDS011;15267;47.838;12.128;2023-07-22T00:59:10;3.90;;;2.35;;
27925;SDS011;15267;47.838;12.128;2023-07-22T01:01:36;3.75;;;2.20;;
27925;SDS011;15267;47.838;12.128;2023-07-22T01:04:02;3.33;;;2.70;;
27925;SDS011;15267;47.838;12.128;2023-07-22T01:06:29;4.95;;;2.60;;
27925;SDS011;15267;47.838;12.128;2023-07-22T01:08:56;5.10;;;2.78;;
27925;SDS011;15267;47.838;12.128;2023-07-22T01:11:22;3.80;;;2.75;;
27925;SDS011;15267;47.838;12.128;2023-07-22T01:13:49;3.45;;;2.40;;
27925;SDS011;15267;47.838;12.128;2023-07-22T01:16:15;5.47;;;2.75;;
27925;SDS011;15267;47.838;12.128;2023-07-22T01:18:41;3.00;;;2.45;;
27925;SDS011;15267;47.838;12.128;2023-07-22T01:21:08;4.20;;;2.60;;
27925;SDS011;15267;47.838;12.128;2023-07-22T01:23:35;2.95;;;2.25;;
27925;SDS011;15267;47.838;12.128;2023-07-22T01:26:01;4.40;;;2.60;;
27925;SDS011;15267;47.838;12.128;2023-07-22T01:28:28;6.18;;;2.50;;
27925;SDS011;15267;47.838;12.128;2023-07-22T01:30:54;3.42;;;2.30;;
27925;SDS011;15267;47.838;12.128;2023-07-22T01:33:20;4.32;;;2.63;;
27925;SDS011;15267;47.838;12.128;2023-07-22T01:35:46;4.45;;;2.80;;
27925;SDS011;15267;47.838;12.128;2023-07-22T01:38:12;5.10;;;2.70;;
27925;SDS011;15267;47.838;12.128;2023-07-22T01:40:38;5.38;;;2.40;;
27925;SDS011;15267;47.838;12.128;2023-07-22T01:43:04;3.08;;;2.50;;
27925;SDS011;15267;47.838;12.128;2023-07-22T01:45:30;5.70;;;2.53;;
27925;SDS011;15267;47.838;12.128;2023-07-22T01:47:57;4.43;;;2.40;;
27925;SDS011;15267;47.838;12.128;2023-07-22T01:50:23;2.50;;;2.22;;
27925;SDS011;15267;47.838;12.128;2023-07-22T01:52:49;6.05;;;2.70;;
27925;SDS011;15267;47.838;12.128;2023-07-22T01:55:15;3.97;;;2.40;;
27925;SDS011;15267;47.838;12.128;2023-07-22T01:57:41;3.10;;;2.30;;
27925;SDS011;15267;47.838;12.128;2023-07-22T02:00:07;3.33;;;2.30;;
27925;SDS011;15267;47.838;12.128;2023-07-22T02:02:36;3.92;;;2.20;;
27925;SDS011;15267;47.838;12.128;2023-07-22T02:05:02;3.03;;;2.15;;
27925;SDS011;15267;47.838;12.128;2023-07-22T02:07:28;3.08;;;2.35;;
27925;SDS011;15267;47.838;12.128;2023-07-22T02:09:54;2.85;;;2.00;;
27925;SDS011;15267;47.838;12.128;2023-07-22T02:12:20;3.72;;;2.60;;
27925;SDS011;15267;47.838;12.128;2023-07-22T02:14:46;4.05;;;2.40;;
27925;SDS011;15267;47.838;12.128;2023-07-22T02:17:12;5.03;;;2.30;;
27925;SDS011;15267;47.838;12.128;2023-07-22T02:19:38;3.42;;;2.70;;
27925;SDS011;15267;47.838;12.128;2023-07-22T02:22:04;5.85;;;2.55;;
27925;SDS011;15267;47.838;12.128;2023-07-22T02:24:30;3.97;;;2.40;;
27925;SDS011;15267;47.838;12.128;2023-07-22T02:26:57;4.47;;;2.97;;
27925;SDS011;15267;47.838;12.128;2023-07-22T02:29:23;4.97;;;2.50;;
27925;SDS011;15267;47.838;12.128;2023-07-22T02:31:49;5.35;;;2.60;;
27925;SDS011;15267;47.838;12.128;2023-07-22T02:34:15;4.30;;;2.90;;
27925;SDS011;15267;47.838;12.128;2023-07-22T02:36:41;4.70;;;2.95;;
27925;SDS011;15267;47.838;12.128;2023-07-22T02:39:07;6.63;;;3.22;;
27925;SDS011;15267;47.838;12.128;2023-07-22T02:41:36;4.78;;;2.88;;
27925;SDS011;15267;47.838;12.128;2023-07-22T02:44:02;5.10;;;3.03;;
27925;SDS011;15267;47.838;12.128;2023-07-22T02:46:28;4.03;;;2.88;;
27925;SDS011;15267;47.838;12.128;2023-07-22T02:48:54;5.65;;;2.80;;
27925;SDS011;15267;47.838;12.128;2023-07-22T02:51:20;5.65;;;3.38;;
27925;SDS011;15267;47.838;12.128;2023-07-22T02:53:46;5.97;;;3.10;;
27925;SDS011;15267;47.838;12.128;2023-07-22T02:56:12;3.83;;;2.67;;
27925;SDS011;15267;47.838;12.128;2023-07-22T02:58:39;5.65;;;2.97;;
27925;SDS011;15267;47.838;12.128;2023-07-22T03:01:06;5.55;;;3.10;;
27925;SDS011;15267;47.838;12.128;2023-07-22T03:03:33;6.35;;;3.40;;
27925;SDS011;15267;47.838;12.128;2023-07-22T03:06:02;6.50;;;3.55;;
27925;SDS011;15267;47.838;12.128;2023-07-22T03:08:29;4.95;;;3.70;;
27925;SDS011;15267;47.838;12.128;2023-07-22T03:10:55;6.75;;;3.53;;
27925;SDS011;15267;47.838;12.128;2023-07-22T03:13:21;4.20;;;3.03;;
27925;SDS011;15267;47.838;12.128;2023-07-22T03:15:47;7.22;;;3.70;;
27925;SDS011;15267;47.838;12.128;2023-07-22T03:18:13;5.30;;;3.30;;
27925;SDS011;15267;47.838;12.128;2023-07-22T03:20:39;7.25;;;3.53;;
27925;SDS011;15267;47.838;12.128;2023-07-22T03:23:06;4.55;;;3.28;;
27925;SDS011;15267;47.838;12.128;2023-07-22T03:25:32;6.40;;;3.90;;
27925;SDS011;15267;47.838;12.128;2023-07-22T03:28:02;4.70;;;3.30;;
27925;SDS011;15267;47.838;12.128;2023-07-22T03:30:28;5.57;;;3.60;;
27925;SDS011;15267;47.838;12.128;2023-07-22T03:32:54;7.63;;;3.60;;
27925;SDS011;15267;47.838;12.128;2023-07-22T03:35:20;3.97;;;3.42;;
27925;SDS011;15267;47.838;12.128;2023-07-22T03:37:46;3.83;;;3.13;;
27925;SDS011;15267;47.838;12.128;2023-07-22T03:40:12;6.88;;;3.72;;
27925;SDS011;15267;47.838;12.128;2023-07-22T03:42:49;5.28;;;3.75;;
27925;SDS011;15267;47.838;12.128;2023-07-22T03:45:15;4.75;;;3.72;;
27925;SDS011;15267;47.838;12.128;2023-07-22T03:47:41;6.53;;;3.45;;
27925;SDS011;15267;47.838;12.128;2023-07-22T03:50:07;6.70;;;3.70;;
27925;SDS011;15267;47.838;12.128;2023-07-22T03:52:34;5.95;;;3.72;;
27925;SDS011;15267;47.838;12.128;2023-07-22T03:55:00;6.10;;;3.90;;
27925;SDS011;15267;47.838;12.128;2023-07-22T03:57:26;7.03;;;4.00;;
27925;SDS011;15267;47.838;12.128;2023-07-22T03:59:53;4.85;;;3.55;;
27925;SDS011;15267;47.838;12.128;2023-07-22T04:02:19;7.50;;;3.70;;
27925;SDS011;15267;47.838;12.128;2023-07-22T04:04:45;4.95;;;3.30;;
27925;SDS011;15267;47.838;12.128;2023-07-22T04:07:11;6.75;;;3.42;;
27925;SDS011;15267;47.838;12.128;2023-07-22T04:09:37;6.38;;;3.72;;
27925;SDS011;15267;47.838;12.128;2023-07-22T04:12:03;5.45;;;3.55;;
27925;SDS011;15267;47.838;12.128;2023-07-22T04:14:29;5.97;;;3.80;;
27925;SDS011;15267;47.838;12.128;2023-07-22T04:16:55;5.32;;;3.80;;
27925;SDS011;15267;47.838;12.128;2023-07-22T04:19:22;6.55;;;3.95;;
27925;SDS011;15267;47.838;12.128;2023-07-22T04:21:48;7.82;;;3.97;;
27925;SDS011;15267;47.838;12.128;2023-07-22T04:24:14;6.03;;;3.95;;
27925;SDS011;15267;47.838;12.128;2023-07-22T04:26:41;5.82;;;3.90;;
27925;SDS011;15267;47.838;12.128;2023-07-22T04:29:07;5.97;;;4.00;;
27925;SDS011;15267;47.838;12.128;2023-07-22T04:31:33;6.35;;;3.50;;
27925;SDS011;15267;47.838;12.128;2023-07-22T04:33:59;4.72;;;3.55;;
27925;SDS011;15267;47.838;12.128;2023-07-22T04:36:25;7.18;;;3.50;;
27925;SDS011;15267;47.838;12.128;2023-07-22T04:38:51;6.20;;;3.55;;
27925;SDS011;15267;47.838;12.128;2023-07-22T04:41:17;8.00;;;3.53;;
27925;SDS011;15267;47.838;12.128;2023-07-22T04:43:43;5.10;;;3.45;;
27925;SDS011;15267;47.838;12.128;2023-07-22T04:46:09;6.35;;;3.70;;
27925;SDS011;15267;47.838;12.128;2023-07-22T04:48:35;6.05;;;3.60;;
27925;SDS011;15267;47.838;12.128;2023-07-22T04:51:02;3.83;;;3.40;;
27925;SDS011;15267;47.838;12.128;2023-07-22T04:53:28;4.60;;;3.63;;
27925;SDS011;15267;47.838;12.128;2023-07-22T04:55:54;7.88;;;3.90;;
27925;SDS011;15267;47.838;12.128;2023-07-22T04:58:20;6.07;;;3.88;;
27925;SDS011;15267;47.838;12.128;2023-07-22T05:00:46;5.72;;;3.80;;
27925;SDS011;15267;47.838;12.128;2023-07-22T05:03:13;7.78;;;3.63;;
27925;SDS011;15267;47.838;12.128;2023-07-22T05:05:39;4.72;;;3.58;;
27925;SDS011;15267;47.838;12.128;2023-07-22T05:08:05;6.38;;;3.70;;
27925;SDS011;15267;47.838;12.128;2023-07-22T05:10:33;5.45;;;3.67;;
27925;SDS011;15267;47.838;12.128;2023-07-22T05:12:59;5.25;;;3.55;;
27925;SDS011;15267;47.838;12.128;2023-07-22T05:15:25;7.25;;;3.67;;
27925;SDS011;15267;47.838;12.128;2023-07-22T05:17:51;5.32;;;3.50;;
27925;SDS011;15267;47.838;12.128;2023-07-22T05:20:17;6.03;;;3.15;;
27925;SDS011;15267;47.838;12.128;2023-07-22T05:22:43;6.65;;;3.65;;
27925;SDS011;15267;47.838;12.128;2023-07-22T05:25:09;5.40;;;3.10;;
27925;SDS011;15267;47.838;12.128;2023-07-22T05:27:35;9.52;;;3.55;;
27925;SDS011;15267;47.838;12.128;2023-07-22T05:30:01;7.93;;;3.70;;
27925;SDS011;15267;47.838;12.128;2023-07-22T05:32:30;5.47;;;3.72;;
27925;SDS011;15267;47.838;12.128;2023-07-22T05:34:56;3.72;;;3.28;;
27925;SDS011;15267;47.838;12.128;2023-07-22T05:37:25;6.15;;;3.28;;
27925;SDS011;15267;47.838;12.128;2023-07-22T05:39:51;5.32;;;3.17;;
27925;SDS011;15267;47.838;12.128;2023-07-22T05:42:17;5.47;;;3.60;;
27925;SDS011;15267;47.838;12.128;2023-07-22T05:44:43;3.45;;;3.05;;
27925;SDS011;15267;47.838;12.128;2023-07-22T05:47:09;4.10;;;3.25;;
27925;SDS011;15267;47.838;12.128;2023-07-22T05:49:35;5.78;;;3.28;;
27925;SDS011;15267;47.838;12.128;2023-07-22T05:52:01;5.78;;;3.40;;
27925;SDS011;15267;47.838;12.128;2023-07-22T05:54:27;4.03;;;3.45;;
27925;SDS011;15267;47.838;12.128;2023-07-22T05:56:53;6.32;;;3.42;;
27925;SDS011;15267;47.838;12.128;2023-07-22T05:59:19;3.92;;;3.03;;
27925;SDS011;15267;47.838;12.128;2023-07-22T06:01:45;4.90;;;2.70;;
27925;SDS011;15267;47.838;12.128;2023-07-22T06:04:11;6.30;;;3.35;;
27925;SDS011;15267;47.838;12.128;2023-07-22T06:06:38;6.25;;;3.38;;
27925;SDS011;15267;47.838;12.128;2023-07-22T06:09:04;4.82;;;3.28;;
27925;SDS011;15267;47.838;12.128;2023-07-22T06:11:30;6.75;;;3.28;;
27925;SDS011;15267;47.838;12.128;2023-07-22T06:13:56;5.38;;;3.10;;
27925;SDS011;15267;47.838;12.128;2023-07-22T06:16:22;4.65;;;3.05;;
27925;SDS011;15267;47.838;12.128;2023-07-22T06:18:47;8.40;;;3.58;;
27925;SDS011;15267;47.838;12.128;2023-07-22T06:21:13;4.95;;;2.70;;
27925;SDS011;15267;47.838;12.128;2023-07-22T06:23:39;3.60;;;2.80;;
27925;SDS011;15267;47.838;12.128;2023-07-22T06:26:05;5.43;;;2.80;;
27925;SDS011;15267;47.838;12.128;2023-07-22T06:28:31;6.93;;;3.03;;
27925;SDS011;15267;47.838;12.128;2023-07-22T06:30:57;4.05;;;2.90;;
27925;SDS011;15267;47.838;12.128;2023-07-22T06:33:23;5.40;;;3.10;;
27925;SDS011;15267;47.838;12.128;2023-07-22T06:35:49;5.13;;;3.42;;
27925;SDS011;15267;47.838;12.128;2023-07-22T06:38:15;4.03;;;3.53;;
27925;SDS011;15267;47.838;12.128;2023-07-22T06:40:41;5.72;;;3.15;;
27925;SDS011;15267;47.838;12.128;2023-07-22T06:43:07;5.88;;;2.90;;
27925;SDS011;15267;47.838;12.128;2023-07-22T06:45:33;4.97;;;3.40;;
27925;SDS011;15267;47.838;12.128;2023-07-22T06:47:59;5.90;;;3.17;;
27925;SDS011;15267;47.838;12.128;2023-07-22T06:50:25;4.13;;;2.97;;
27925;SDS011;15267;47.838;12.128;2023-07-22T06:52:51;5.43;;;2.88;;
27925;SDS011;15267;47.838;12.128;2023-07-22T06:55:17;5.90;;;3.72;;
27925;SDS011;15267;47.838;12.128;2023-07-22T06:57:43;5.47;;;3.78;;
27925;SDS011;15267;47.838;12.128;2023-07-22T07:00:09;4.47;;;3.10;;
27925;SDS011;15267;47.838;12.128;2023-07-22T07:02:35;3.35;;;2.42;;
27925;SDS011;15267;47.838;12.128;2023-07-22T07:05:01;5.53;;;2.60;;
27925;SDS011;15267;47.838;12.128;2023-07-22T07:07:27;4.45;;;2.47;;
27925;SDS011;15267;47.838;12.128;2023-07-22T07:09:53;4.25;;;2.90;;
27925;SDS011;15267;47.838;12.128;2023-07-22T07:12:19;3.15;;;2.70;;
27925;SDS011;15267;47.838;12.128;2023-07-22T07:14:45;4.30;;;2.42;;
27925;SDS011;15267;47.838;12.128;2023-07-22T07:17:11;4.05;;;2.20;;
27925;SDS011;15267;47.838;12.128;2023-07-22T07:19:37;3.42;;;2.40;;
27925;SDS011;15267;47.838;12.128;2023-07-22T07:22:03;5.22;;;2.47;;
27925;SDS011;15267;47.838;12.128;2023-07-22T07:24:29;2.97;;;2.25;;
27925;SDS011;15267;47.838;12.128;2023-07-22T07:26:55;3.30;;;2.75;;
27925;SDS011;15267;47.838;12.128;2023-07-22T07:29:21;3.33;;;2.80;;
27925;SDS011;15267;47.838;12.128;2023-07-22T07:31:47;4.40;;;2.60;;
27925;SDS011;15267;47.838;12.128;2023-07-22T07:34:13;4.53;;;2.75;;
27925;SDS011;15267;47.838;12.128;2023-07-22T07:36:39;4.55;;;2.80;;
27925;SDS011;15267;47.838;12.128;2023-07-22T07:39:05;3.67;;;2.50;;
27925;SDS011;15267;47.838;12.128;2023-07-22T07:41:31;4.15;;;2.67;;
27925;SDS011;15267;47.838;12.128;2023-07-22T07:43:57;3.55;;;2.63;;
27925;SDS011;15267;47.838;12.128;2023-07-22T07:46:23;3.78;;;2.50;;
27925;SDS011;15267;47.838;12.128;2023-07-22T07:48:51;3.40;;;2.47;;
27925;SDS011;15267;47.838;12.128;2023-07-22T07:51:18;4.03;;;2.85;;
27925;SDS011;15267;47.838;12.128;2023-07-22T07:53:45;4.38;;;2.70;;
27925;SDS011;15267;47.838;12.128;2023-07-22T07:56:14;4.97;;;2.58;;
27925;SDS011;15267;47.838;12.128;2023-07-22T07:58:40;4.72;;;2.85;;
27925;SDS011;15267;47.838;12.128;2023-07-22T08:01:06;3.50;;;2.70;;
27925;SDS011;15267;47.838;12.128;2023-07-22T08:03:33;4.85;;;2.50;;
27925;SDS011;15267;47.838;12.128;2023-07-22T08:05:59;4.20;;;2.78;;
27925;SDS011;15267;47.838;12.128;2023-07-22T08:08:25;3.83;;;2.60;;
27925;SDS011;15267;47.838;12.128;2023-07-22T08:11:05;3.10;;;2.53;;
27925;SDS011;15267;47.838;12.128;2023-07-22T08:13:32;3.58;;;2.40;;
27925;SDS011;15267;47.838;12.128;2023-07-22T08:15:59;3.08;;;2.60;;
27925;SDS011;15267;47.838;12.128;2023-07-22T08:18:25;3.20;;;2.55;;
27925;SDS011;15267;47.838;12.128;2023-07-22T08:20:52;3.65;;;2.58;;
27925;SDS011;15267;47.838;12.128;2023-07-22T08:23:18;3.50;;;2.70;;
27925;SDS011;15267;47.838;12.128;2023-07-22T08:25:44;5.63;;;2.85;;
27925;SDS011;15267;47.838;12.128;2023-07-22T08:28:10;5.10;;;2.70;;
27925;SDS011;15267;47.838;12.128;2023-07-22T08:30:36;10.50;;;3.00;;
27925;SDS011;15267;47.838;12.128;2023-07-22T08:33:05;5.30;;;2.50;;
27925;SDS011;15267;47.838;12.128;2023-07-22T08:35:32;4.88;;;2.53;;
27925;SDS011;15267;47.838;12.128;2023-07-22T08:37:59;5.55;;;2.72;;
27925;SDS011;15267;47.838;12.128;2023-07-22T08:40:25;9.70;;;2.63;;
27925;SDS011;15267;47.838;12.128;2023-07-22T08:42:51;3.45;;;2.50;;
27925;SDS011;15267;47.838;12.128;2023-07-22T08:45:18;3.35;;;2.50;;
27925;SDS011;15267;47.838;12.128;2023-07-22T08:47:46;4.22;;;2.40;;
27925;SDS011;15267;47.838;12.128;2023-07-22T08:50:16;2.88;;;2.20;;
27925;SDS011;15267;47.838;12.128;2023-07-22T08:52:45;6.18;;;2.25;;
27925;SDS011;15267;47.838;12.128;2023-07-22T08:55:12;3.90;;;2.40;;
27925;SDS011;15267;47.838;12.128;2023-07-22T08:57:38;2.70;;;2.35;;
27925;SDS011;15267;47.838;12.128;2023-07-22T09:00:05;4.05;;;2.58;;
27925;SDS011;15267;47.838;12.128;2023-07-22T09:02:34;2.90;;;2.00;;
27925;SDS011;15267;47.838;12.128;2023-07-22T09:05:01;2.53;;;2.17;;
27925;SDS011;15267;47.838;12.128;2023-07-22T09:07:27;2.55;;;2.10;;
27925;SDS011;15267;47.838;12.128;2023-07-22T09:09:53;2.28;;;2.05;;
27925;SDS011;15267;47.838;12.128;2023-07-22T09:12:20;2.42;;;2.13;;
27925;SDS011;15267;47.838;12.128;2023-07-22T09:14:46;4.47;;;2.42;;
27925;SDS011;15267;47.838;12.128;2023-07-22T09:17:12;3.58;;;2.22;;
27925;SDS011;15267;47.838;12.128;2023-07-22T09:19:39;2.35;;;2.13;;
27925;SDS011;15267;47.838;12.128;2023-07-22T09:22:07;4.07;;;2.47;;
27925;SDS011;15267;47.838;12.128;2023-07-22T09:24:33;2.85;;;2.15;;
27925;SDS011;15267;47.838;12.128;2023-07-22T09:26:59;2.83;;;2.20;;
27925;SDS011;15267;47.838;12.128;2023-07-22T09:29:38;2.90;;;1.88;;
27925;SDS011;15267;47.838;12.128;2023-07-22T09:32:09;2.72;;;2.20;;
27925;SDS011;15267;47.838;12.128;2023-07-22T09:34:35;3.03;;;2.20;;
27925;SDS011;15267;47.838;12.128;2023-07-22T09:37:01;3.85;;;2.22;;
27925;SDS011;15267;47.838;12.128;2023-07-22T09:39:28;2.53;;;2.22;;
27925;SDS011;15267;47.838;12.128;2023-07-22T09:41:55;2.83;;;2.20;;
27925;SDS011;15267;47.838;12.128;2023-07-22T09:44:24;2.90;;;1.88;;
27925;SDS011;15267;47.838;12.128;2023-07-22T09:46:53;4.80;;;2.05;;
27925;SDS011;15267;47.838;12.128;2023-07-22T09:49:19;2.30;;;1.83;;
27925;SDS011;15267;47.838;12.128;2023-07-22T09:51:46;4.97;;;2.20;;
27925;SDS011;15267;47.838;12.128;2023-07-22T09:54:12;2.85;;;1.80;;
27925;SDS011;15267;47.838;12.128;2023-07-22T09:56:45;3.80;;;2.20;;
27925;SDS011;15267;47.838;12.128;2023-07-22T09:59:11;1.70;;;1.60;;
27925;SDS011;15267;47.838;12.128;2023-07-22T10:01:38;2.80;;;2.10;;
27925;SDS011;15267;47.838;12.128;2023-07-22T10:04:04;2.95;;;1.73;;
27925;SDS011;15267;47.838;12.128;2023-07-22T10:06:30;4.00;;;2.10;;
27925;SDS011;15267;47.838;12.128;2023-07-22T10:08:56;4.05;;;2.00;;
27925;SDS011;15267;47.838;12.128;2023-07-22T10:11:24;4.88;;;1.92;;
27925;SDS011;15267;47.838;12.128;2023-07-22T10:13:51;2.97;;;1.98;;
27925;SDS011;15267;47.838;12.128;2023-07-22T10:16:18;2.80;;;1.85;;
27925;SDS011;15267;47.838;12.128;2023-07-22T10:18:44;5.00;;;1.80;;
27925;SDS011;15267;47.838;12.128;2023-07-22T10:21:12;2.50;;;1.80;;
27925;SDS011;15267;47.838;12.128;2023-07-22T10:23:38;3.13;;;1.90;;
27925;SDS011;15267;47.838;12.128;2023-07-22T10:26:04;2.28;;;1.90;;
27925;SDS011;15267;47.838;12.128;2023-07-22T10:28:31;3.00;;;1.80;;
27925;SDS011;15267;47.838;12.128;2023-07-22T10:30:58;2.25;;;1.50;;
27925;SDS011;15267;47.838;12.128;2023-07-22T10:33:24;3.20;;;1.55;;
27925;SDS011;15267;47.838;12.128;2023-07-22T10:36:07;3.95;;;1.67;;
27925;SDS011;15267;47.838;12.128;2023-07-22T10:38:34;2.72;;;1.75;;
27925;SDS011;15267;47.838;12.128;2023-07-22T10:41:00;2.95;;;1.90;;
27925;SDS011;15267;47.838;12.128;2023-07-22T10:43:27;2.47;;;2.00;;
27925;SDS011;15267;47.838;12.128;2023-07-22T10:45:54;4.63;;;2.00;;
27925;SDS011;15267;47.838;12.128;2023-07-22T10:48:20;2.58;;;1.70;;
27925;SDS011;15267;47.838;12.128;2023-07-22T10:50:51;3.25;;;2.15;;
27925;SDS011;15267;47.838;12.128;2023-07-22T10:56:05;3.05;;;1.80;;
27925;SDS011;15267;47.838;12.128;2023-07-22T10:58:32;4.45;;;2.00;;
27925;SDS011;15267;47.838;12.128;2023-07-22T11:06:36;2.28;;;1.80;;
27925;SDS011;15267;47.838;12.128;2023-07-22T11:09:02;2.92;;;1.90;;
27925;SDS011;15267;47.838;12.128;2023-07-22T11:11:35;2.40;;;1.85;;
27925;SDS011;15267;47.838;12.128;2023-07-22T11:14:15;4.57;;;2.00;;
27925;SDS011;15267;47.838;12.128;2023-07-22T11:16:44;2.88;;;1.75;;
27925;SDS011;15267;47.838;12.128;2023-07-22T11:19:12;2.90;;;1.95;;
27925;SDS011;15267;47.838;12.128;2023-07-22T11:21:38;3.05;;;1.75;;
27925;SDS011;15267;47.838;12.128;2023-07-22T11:24:04;3.33;;;1.90;;
27925;SDS011;15267;47.838;12.128;2023-07-22T11:26:30;3.33;;;2.00;;
27925;SDS011;15267;47.838;12.128;2023-07-22T11:28:59;2.78;;;2.20;;
27925;SDS011;15267;47.838;12.128;2023-07-22T11:31:35;3.13;;;2.00;;
27925;SDS011;15267;47.838;12.128;2023-07-22T11:34:02;2.03;;;1.80;;
27925;SDS011;15267;47.838;12.128;2023-07-22T11:36:28;2.78;;;2.03;;
27925;SDS011;15267;47.838;12.128;2023-07-22T11:38:54;3.00;;;1.88;;
27925;SDS011;15267;47.838;12.128;2023-07-22T11:41:26;3.25;;;2.03;;
27925;SDS011;15267;47.838;12.128;2023-07-22T11:43:52;3.60;;;2.13;;
27925;SDS011;15267;47.838;12.128;2023-07-22T11:46:18;4.55;;;2.13;;
27925;SDS011;15267;47.838;12.128;2023-07-22T11:48:50;3.85;;;2.40;;
27925;SDS011;15267;47.838;12.128;2023-07-22T11:51:17;2.60;;;2.20;;
27925;SDS011;15267;47.838;12.128;2023-07-22T11:53:46;3.20;;;2.10;;
27925;SDS011;15267;47.838;12.128;2023-07-22T11:56:12;2.35;;;1.92;;
27925;SDS011;15267;47.838;12.128;2023-07-22T11:58:39;2.25;;;2.00;;
27925;SDS011;15267;47.838;12.128;2023-07-22T12:01:09;5.45;;;2.05;;
27925;SDS011;15267;47.838;12.128;2023-07-22T12:03:35;2.97;;;2.00;;
27925;SDS011;15267;47.838;12.128;2023-07-22T12:06:05;3.08;;;1.77;;
27925;SDS011;15267;47.838;12.128;2023-07-22T12:08:32;2.45;;;1.70;;
27925;SDS011;15267;47.838;12.128;2023-07-22T12:10:58;3.58;;;1.98;;
27925;SDS011;15267;47.838;12.128;2023-07-22T12:13:25;2.70;;;1.80;;
27925;SDS011;15267;47.838;12.128;2023-07-22T12:16:04;3.35;;;2.03;;
27925;SDS011;15267;47.838;12.128;2023-07-22T12:18:46;1.85;;;1.65;;
27925;SDS011;15267;47.838;12.128;2023-07-22T12:21:13;10.45;;;2.20;;
27925;SDS011;15267;47.838;12.128;2023-07-22T12:23:39;6.60;;;2.38;;
27925;SDS011;15267;47.838;12.128;2023-07-22T12:26:05;6.53;;;2.10;;
27925;SDS011;15267;47.838;12.128;2023-07-22T12:28:32;3.80;;;1.90;;
27925;SDS011;15267;47.838;12.128;2023-07-22T12:30:58;1.95;;;1.67;;
27925;SDS011;15267;47.838;12.128;2023-07-22T12:33:24;3.03;;;1.80;;
27925;SDS011;15267;47.838;12.128;2023-07-22T12:35:50;1.95;;;1.75;;
27925;SDS011;15267;47.838;12.128;2023-07-22T12:38:16;4.25;;;2.05;;
27925;SDS011;15267;47.838;12.128;2023-07-22T12:40:42;2.17;;;1.98;;
27925;SDS011;15267;47.838;12.128;2023-07-22T12:43:08;4.95;;;2.28;;
27925;SDS011;15267;47.838;12.128;2023-07-22T12:45:34;2.30;;;1.95;;
27925;SDS011;15267;47.838;12.128;2023-07-22T12:48:01;3.90;;;1.90;;
27925;SDS011;15267;47.838;12.128;2023-07-22T12:50:28;3.92;;;1.77;;
27925;SDS011;15267;47.838;12.128;2023-07-22T12:52:55;2.95;;;2.17;;
27925;SDS011;15267;47.838;12.128;2023-07-22T12:55:21;1.90;;;1.80;;
27925;SDS011;15267;47.838;12.128;2023-07-22T12:57:47;4.35;;;2.10;;
27925;SDS011;15267;47.838;12.128;2023-07-22T13:00:13;2.00;;;1.80;;
27925;SDS011;15267;47.838;12.128;2023-07-22T13:02:39;6.13;;;1.60;;
27925;SDS011;15267;47.838;12.128;2023-07-22T13:05:05;2.33;;;1.80;;
27925;SDS011;15267;47.838;12.128;2023-07-22T13:07:31;3.42;;;1.80;;
27925;SDS011;15267;47.838;12.128;2023-07-22T13:09:58;3.33;;;1.80;;
27925;SDS011;15267;47.838;12.128;2023-07-22T13:12:26;2.33;;;1.90;;
27925;SDS011;15267;47.838;12.128;2023-07-22T13:14:52;2.47;;;1.80;;
27925;SDS011;15267;47.838;12.128;2023-07-22T13:17:18;2.30;;;1.83;;
27925;SDS011;15267;47.838;12.128;2023-07-22T13:19:44;3.97;;;2.47;;
27925;SDS011;15267;47.838;12.128;2023-07-22T13:22:10;3.40;;;1.60;;
27925;SDS011;15267;47.838;12.128;2023-07-22T13:24:36;2.08;;;1.88;;
27925;SDS011;15267;47.838;12.128;2023-07-22T13:27:02;2.78;;;1.77;;
27925;SDS011;15267;47.838;12.128;2023-07-22T13:29:28;4.32;;;1.80;;
27925;SDS011;15267;47.838;12.128;2023-07-22T13:31:55;2.45;;;1.77;;
27925;SDS011;15267;47.838;12.128;2023-07-22T13:34:21;3.42;;;2.15;;
27925;SDS011;15267;47.838;12.128;2023-07-22T13:36:47;4.18;;;1.83;;
27925;SDS011;15267;47.838;12.128;2023-07-22T13:39:13;2.15;;;1.83;;
27925;SDS011;15267;47.838;12.128;2023-07-22T13:41:39;2.65;;;2.10;;
27925;SDS011;15267;47.838;12.128;2023-07-22T13:44:05;3.47;;;1.88;;
27925;SDS011;15267;47.838;12.128;2023-07-22T13:46:31;5.22;;;1.80;;
27925;SDS011;15267;47.838;12.128;2023-07-22T13:48:57;7.63;;;1.92;;
27925;SDS011;15267;47.838;12.128;2023-07-22T13:51:23;2.10;;;1.90;;
27925;SDS011;15267;47.838;12.128;2023-07-22T13:53:49;3.78;;;1.80;;
27925;SDS011;15267;47.838;12.128;2023-07-22T13:56:17;2.78;;;1.75;;
27925;SDS011;15267;47.838;12.128;2023-07-22T13:58:43;3.03;;;1.92;;
27925;SDS011;15267;47.838;12.128;2023-07-22T14:01:09;2.50;;;2.03;;
27925;SDS011;15267;47.838;12.128;2023-07-22T14:03:35;2.80;;;1.70;;
27925;SDS011;15267;47.838;12.128;2023-07-22T14:06:01;4.50;;;2.17;;
27925;SDS011;15267;47.838;12.128;2023-07-22T14:08:27;3.63;;;1.90;;
27925;SDS011;15267;47.838;12.128;2023-07-22T14:10:54;2.72;;;2.03;;
27925;SDS011;15267;47.838;12.128;2023-07-22T14:13:19;2.70;;;2.22;;
27925;SDS011;15267;47.838;12.128;2023-07-22T14:15:45;2.00;;;1.73;;
27925;SDS011;15267;47.838;12.128;2023-07-22T14:18:11;2.95;;;2.10;;
27925;SDS011;15267;47.838;12.128;2023-07-22T14:20:42;2.78;;;2.00;;
27925;SDS011;15267;47.838;12.128;2023-07-22T14:23:08;5.57;;;2.03;;
27925;SDS011;15267;47.838;12.128;2023-07-22T14:25:33;2.58;;;1.90;;
27925;SDS011;15267;47.838;12.128;2023-07-22T14:27:59;2.05;;;1.85;;
27925;SDS011;15267;47.838;12.128;2023-07-22T14:30:25;6.05;;;1.83;;
27925;SDS011;15267;47.838;12.128;2023-07-22T14:32:51;2.85;;;2.13;;
27925;SDS011;15267;47.838;12.128;2023-07-22T14:35:17;2.30;;;2.00;;
27925;SDS011;15267;47.838;12.128;2023-07-22T14:37:43;2.28;;;1.85;;